Time;durP1;ratioP1;P1;durP2;ratioP2;P2;SDS_P1;SDS_P2;PMS_P1;PMS_P2;Temp;Humidity;BMP_temperature;BMP_pressure;BME280_temperature;BME280_humidity;BME280_pressure;Samples;Min_cycle;Max_cycle;Signal;HPM_P1;HPM_P2
2023/03/31 00:00:10;;;;;;;2.10;0.90;;;;;;;;;;5035414;28;20038;-75
2023/03/31 00:02:36;;;;;;;5.00;1.00;;;;;;;;;;5033412;28;20279;-74
2023/03/31 00:05:01;;;;;;;3.63;1.00;;;;;;;;;;5033425;28;20489;-75
2023/03/31 00:07:26;;;;;;;2.58;0.80;;;;;;;;;;5034707;28;20037;-75
2023/03/31 00:09:56;;;;;;;4.03;0.80;;;;;;;;;;5034440;28;20029;-75
2023/03/31 00:12:22;;;;;;;1.83;0.70;;;;;;;;;;5034481;28;20756;-74
2023/03/31 00:14:47;;;;;;;1.73;0.82;;;;;;;;;;5034556;28;20030;-73
2023/03/31 00:17:12;;;;;;;4.97;1.02;;;;;;;;;;5033128;28;20021;-74
2023/03/31 00:19:40;;;;;;;2.25;0.80;;;;;;;;;;5033214;28;20120;-77
2023/03/31 00:22:06;;;;;;;3.00;0.80;;;;;;;;;;5034185;28;20033;-75
2023/03/31 00:24:32;;;;;;;2.85;0.80;;;;;;;;;;5034265;28;20039;-74
2023/03/31 00:26:58;;;;;;;2.10;1.20;;;;;;;;;;5032907;28;20109;-76
2023/03/31 00:29:24;;;;;;;1.23;0.93;;;;;;;;;;5034107;28;20037;-75
2023/03/31 00:31:49;;;;;;;4.35;0.98;;;;;;;;;;5034195;28;20025;-76
2023/03/31 00:34:14;;;;;;;3.93;1.10;;;;;;;;;;5034556;28;20021;-75
2023/03/31 00:36:46;;;;;;;2.42;0.80;;;;;;;;;;5034095;28;20342;-75
2023/03/31 00:39:11;;;;;;;1.67;0.70;;;;;;;;;;5032673;28;20022;-75
2023/03/31 00:41:38;;;;;;;1.40;0.70;;;;;;;;;;5032718;28;20021;-75
2023/03/31 00:44:28;;;;;;;2.35;1.00;;;;;;;;;;5032422;28;20476;-75
2023/03/31 00:47:14;;;;;;;5.68;1.13;;;;;;;;;;5032561;28;20516;-74
2023/03/31 00:49:44;;;;;;;1.83;0.80;;;;;;;;;;5033646;28;20063;-75
2023/03/31 00:52:34;;;;;;;3.85;1.05;;;;;;;;;;5034075;28;20033;-74
2023/03/31 00:55:05;;;;;;;3.22;0.90;;;;;;;;;;5033962;28;20495;-76
2023/03/31 00:57:38;;;;;;;4.93;1.10;;;;;;;;;;5033429;28;20087;-75
2023/03/31 01:00:17;;;;;;;2.80;0.80;;;;;;;;;;5033545;28;20091;-74
2023/03/31 01:02:50;;;;;;;2.80;0.88;;;;;;;;;;5033859;28;20040;-75
2023/03/31 01:05:16;;;;;;;1.38;0.70;;;;;;;;;;5032212;28;20036;-76
2023/03/31 01:07:46;;;;;;;2.63;0.77;;;;;;;;;;5033507;28;20034;-74
2023/03/31 01:10:12;;;;;;;4.70;0.88;;;;;;;;;;5032392;28;20022;-74
2023/03/31 01:12:42;;;;;;;3.22;0.90;;;;;;;;;;5032492;28;20116;-75
2023/03/31 01:15:08;;;;;;;2.53;0.90;;;;;;;;;;5032099;28;20024;-74
2023/03/31 01:17:34;;;;;;;3.85;0.88;;;;;;;;;;5031994;28;20120;-74
2023/03/31 01:20:18;;;;;;;2.05;0.90;;;;;;;;;;5033142;28;20153;-75
2023/03/31 01:23:01;;;;;;;3.75;0.90;;;;;;;;;;5033228;28;20107;-74
2023/03/31 01:26:00;;;;;;;3.88;0.90;;;;;;;;;;5033087;28;20026;-74
2023/03/31 01:29:07;;;;;;;3.17;0.95;;;;;;;;;;5032099;28;20087;-75
2023/03/31 01:32:00;;;;;;;3.30;1.10;;;;;;;;;;5016007;28;20511;-74
2023/03/31 01:34:47;;;;;;;3.53;0.77;;;;;;;;;;5033041;28;20065;-74
2023/03/31 01:37:57;;;;;;;1.65;0.65;;;;;;;;;;5033281;28;20030;-76
2023/03/31 01:40:49;;;;;;;2.97;0.95;;;;;;;;;;5027545;28;20037;-75
2023/03/31 01:43:32;;;;;;;3.80;1.20;;;;;;;;;;5033311;28;20021;-75
2023/03/31 01:46:03;;;;;;;2.08;0.80;;;;;;;;;;5032967;28;20095;-74
2023/03/31 01:48:53;;;;;;;2.67;0.90;;;;;;;;;;5033100;28;20069;-74
2023/03/31 01:51:30;;;;;;;2.67;0.90;;;;;;;;;;5033090;28;20036;-75
2023/03/31 01:54:19;;;;;;;1.83;0.70;;;;;;;;;;5031781;28;20124;-75
2023/03/31 01:56:59;;;;;;;3.13;1.00;;;;;;;;;;5031519;28;20040;-75
2023/03/31 01:59:38;;;;;;;2.70;0.93;;;;;;;;;;5032875;28;20032;-75
2023/03/31 02:02:12;;;;;;;3.78;0.93;;;;;;;;;;5035060;28;20029;-75
2023/03/31 02:04:49;;;;;;;2.83;0.88;;;;;;;;;;5035662;28;20078;-75
2023/03/31 02:07:19;;;;;;;2.33;0.98;;;;;;;;;;5036941;28;20022;-75
2023/03/31 02:09:52;;;;;;;2.53;1.00;;;;;;;;;;5036773;28;20412;-75
2023/03/31 02:12:20;;;;;;;2.65;1.00;;;;;;;;;;5036131;28;20079;-76
2023/03/31 02:14:50;;;;;;;5.85;1.10;;;;;;;;;;5036774;28;20030;-76
2023/03/31 02:17:19;;;;;;;4.43;0.90;;;;;;;;;;5037036;28;20110;-74
2023/03/31 02:19:49;;;;;;;5.90;1.15;;;;;;;;;;5036549;28;20029;-74
2023/03/31 02:22:18;;;;;;;3.53;1.05;;;;;;;;;;5036903;28;20040;-74
2023/03/31 02:24:46;;;;;;;2.10;0.75;;;;;;;;;;5036447;28;20080;-74
2023/03/31 02:27:32;;;;;;;3.35;0.85;;;;;;;;;;5036378;28;20030;-75
2023/03/31 02:29:58;;;;;;;5.20;0.77;;;;;;;;;;5034993;28;20033;-74
2023/03/31 02:32:42;;;;;;;2.45;0.88;;;;;;;;;;5036288;28;20022;-75
2023/03/31 02:35:19;;;;;;;3.60;0.90;;;;;;;;;;5035312;28;20021;-75
2023/03/31 02:37:45;;;;;;;4.47;0.80;;;;;;;;;;5036470;28;20071;-74
2023/03/31 02:40:18;;;;;;;2.45;1.00;;;;;;;;;;5036190;28;20108;-74
2023/03/31 02:42:43;;;;;;;4.25;1.13;;;;;;;;;;5036464;28;20025;-74
2023/03/31 02:45:51;;;;;;;3.45;0.90;;;;;;;;;;5034806;28;20043;-74
2023/03/31 02:48:26;;;;;;;2.63;0.82;;;;;;;;;;5029919;28;20037;-74
2023/03/31 02:51:39;;;;;;;2.83;1.00;;;;;;;;;;5036095;28;20108;-74
2023/03/31 02:54:23;;;;;;;4.70;1.10;;;;;;;;;;5036005;28;20017;-74
2023/03/31 02:57:23;;;;;;;5.75;1.30;;;;;;;;;;5035823;28;20039;-75
2023/03/31 03:00:13;;;;;;;1.83;0.90;;;;;;;;;;5034652;28;20041;-74
2023/03/31 03:02:57;;;;;;;6.57;1.50;;;;;;;;;;5034872;28;20079;-74
2023/03/31 03:05:48;;;;;;;3.33;0.80;;;;;;;;;;5036075;28;20029;-74
2023/03/31 03:08:22;;;;;;;3.08;0.80;;;;;;;;;;5035773;28;20026;-74
2023/03/31 03:11:11;;;;;;;5.65;0.90;;;;;;;;;;5035917;28;20029;-74
2023/03/31 03:13:59;;;;;;;2.08;0.88;;;;;;;;;;5033308;28;20025;-74
2023/03/31 03:16:28;;;;;;;4.43;1.00;;;;;;;;;;5035615;28;20492;-74
2023/03/31 03:19:00;;;;;;;9.23;1.38;;;;;;;;;;5035414;28;20033;-74
2023/03/31 03:21:27;;;;;;;7.88;1.27;;;;;;;;;;5034284;28;20116;-74
2023/03/31 03:23:53;;;;;;;6.78;1.20;;;;;;;;;;5035511;28;20038;-74
2023/03/31 03:26:23;;;;;;;3.22;1.10;;;;;;;;;;5035263;28;20060;-74
2023/03/31 03:28:51;;;;;;;2.80;1.00;;;;;;;;;;5035417;28;20024;-75
2023/03/31 03:31:17;;;;;;;4.90;1.00;;;;;;;;;;5034088;28;20127;-74
2023/03/31 03:33:43;;;;;;;2.03;0.73;;;;;;;;;;5034106;28;20035;-75
2023/03/31 03:36:08;;;;;;;2.80;1.00;;;;;;;;;;5035444;28;20104;-74
2023/03/31 03:38:34;;;;;;;6.05;1.02;;;;;;;;;;5035334;28;20117;-74
2023/03/31 03:40:59;;;;;;;3.47;0.98;;;;;;;;;;5035009;28;20030;-74
2023/03/31 03:43:24;;;;;;;3.95;1.05;;;;;;;;;;5033882;28;20025;-74
2023/03/31 03:45:50;;;;;;;5.55;1.00;;;;;;;;;;5035218;28;20120;-74
2023/03/31 03:48:16;;;;;;;3.60;0.90;;;;;;;;;;5035198;28;20036;-74
2023/03/31 03:50:41;;;;;;;3.58;1.10;;;;;;;;;;5035005;28;20032;-74
2023/03/31 03:53:07;;;;;;;3.10;1.00;;;;;;;;;;5033629;28;20033;-73
2023/03/31 03:55:32;;;;;;;7.10;1.17;;;;;;;;;;5034724;28;20622;-73
2023/03/31 03:57:58;;;;;;;6.75;1.10;;;;;;;;;;5034559;28;20037;-73
2023/03/31 04:00:23;;;;;;;5.10;0.90;;;;;;;;;;5034552;28;20504;-73
2023/03/31 04:02:48;;;;;;;4.97;1.17;;;;;;;;;;5033440;28;20025;-73
2023/03/31 04:05:14;;;;;;;2.27;0.63;;;;;;;;;;5035068;28;20040;-74
2023/03/31 04:07:39;;;;;;;5.05;1.15;;;;;;;;;;5034565;28;20263;-73
2023/03/31 04:10:05;;;;;;;2.85;0.80;;;;;;;;;;5034748;28;20103;-73
2023/03/31 04:12:35;;;;;;;4.45;1.02;;;;;;;;;;5033079;28;20079;-74
2023/03/31 04:15:01;;;;;;;3.60;0.90;;;;;;;;;;5034742;28;20044;-75
2023/03/31 04:17:33;;;;;;;3.10;0.90;;;;;;;;;;5033128;28;20536;-74
2023/03/31 04:20:10;;;;;;;6.85;1.00;;;;;;;;;;5034491;28;20435;-74
2023/03/31 04:22:45;;;;;;;5.53;0.90;;;;;;;;;;5033494;28;20029;-75
2023/03/31 04:25:15;;;;;;;3.40;0.90;;;;;;;;;;5032607;28;20021;-74
2023/03/31 04:27:54;;;;;;;3.70;1.00;;;;;;;;;;5034421;28;20025;-74
2023/03/31 04:30:21;;;;;;;3.55;1.08;;;;;;;;;;5032735;28;20075;-74
2023/03/31 04:32:55;;;;;;;8.77;1.25;;;;;;;;;;5032830;28;20472;-74
2023/03/31 04:35:22;;;;;;;5.93;1.25;;;;;;;;;;5032795;28;20029;-74
2023/03/31 04:37:48;;;;;;;3.35;1.00;;;;;;;;;;5033924;28;20491;-74
2023/03/31 04:40:15;;;;;;;5.07;1.10;;;;;;;;;;5032482;28;20065;-73
2023/03/31 04:42:40;;;;;;;7.15;1.40;;;;;;;;;;5032577;28;20025;-73
2023/03/31 04:45:06;;;;;;;6.72;1.15;;;;;;;;;;5034043;28;20079;-73
2023/03/31 04:47:31;;;;;;;4.93;1.58;;;;;;;;;;5033531;28;20044;-74
2023/03/31 04:49:56;;;;;;;8.50;1.30;;;;;;;;;;5033606;28;20107;-73
2023/03/31 04:52:22;;;;;;;4.97;1.15;;;;;;;;;;5033635;28;20294;-74
2023/03/31 04:54:47;;;;;;;2.97;0.98;;;;;;;;;;5033614;28;20034;-74
2023/03/31 04:57:12;;;;;;;4.87;1.00;;;;;;;;;;5033581;28;20124;-74
2023/03/31 04:59:37;;;;;;;9.30;1.50;;;;;;;;;;5033472;28;20364;-74
2023/03/31 05:02:03;;;;;;;8.55;1.30;;;;;;;;;;5032220;28;20075;-73
2023/03/31 05:04:28;;;;;;;5.03;1.20;;;;;;;;;;5033350;28;20040;-74
2023/03/31 05:06:54;;;;;;;7.45;1.38;;;;;;;;;;5033286;28;20053;-74
2023/03/31 05:09:19;;;;;;;4.68;1.02;;;;;;;;;;5033512;28;20029;-74
2023/03/31 05:11:44;;;;;;;5.57;1.05;;;;;;;;;;5033303;28;20030;-76
2023/03/31 05:14:10;;;;;;;3.97;1.13;;;;;;;;;;5033402;28;20083;-75
2023/03/31 05:16:35;;;;;;;4.95;1.10;;;;;;;;;;5033767;28;20029;-75
2023/03/31 05:19:00;;;;;;;4.90;1.08;;;;;;;;;;5032118;28;20444;-75
2023/03/31 05:21:26;;;;;;;7.93;1.48;;;;;;;;;;5032091;28;20028;-75
2023/03/31 05:23:52;;;;;;;5.63;1.17;;;;;;;;;;5031984;28;20048;-74
2023/03/31 05:26:17;;;;;;;7.32;1.67;;;;;;;;;;5033106;28;20025;-75
2023/03/31 05:28:43;;;;;;;11.38;1.58;;;;;;;;;;5033180;28;20030;-74
2023/03/31 05:31:10;;;;;;;12.93;1.92;;;;;;;;;;5031722;28;20033;-74
2023/03/31 05:33:39;;;;;;;12.82;2.20;;;;;;;;;;5033270;28;20108;-74
2023/03/31 05:36:05;;;;;;;13.88;2.13;;;;;;;;;;5031058;28;20036;-74
2023/03/31 05:38:30;;;;;;;12.65;1.92;;;;;;;;;;5031806;28;20118;-74
2023/03/31 05:40:56;;;;;;;13.00;1.75;;;;;;;;;;5032780;28;20053;-75
2023/03/31 05:43:21;;;;;;;11.68;1.92;;;;;;;;;;5031886;28;20033;-74
2023/03/31 05:45:46;;;;;;;8.50;1.70;;;;;;;;;;5033229;28;20091;-74
2023/03/31 05:48:11;;;;;;;4.37;1.30;;;;;;;;;;5033003;28;20029;-73
2023/03/31 05:50:37;;;;;;;4.17;1.17;;;;;;;;;;5032793;28;20344;-73
2023/03/31 05:53:02;;;;;;;10.32;1.90;;;;;;;;;;5032723;28;20681;-74
2023/03/31 05:55:27;;;;;;;5.47;1.65;;;;;;;;;;5032047;28;20024;-74
2023/03/31 05:57:53;;;;;;;13.20;3.85;;;;;;;;;;5031431;28;20025;-75
2023/03/31 06:00:19;;;;;;;33.65;9.25;;;;;;;;;;5032932;28;20439;-75
2023/03/31 06:02:44;;;;;;;26.65;5.70;;;;;;;;;;5032877;28;20021;-74
2023/03/31 06:05:09;;;;;;;9.90;2.75;;;;;;;;;;5031584;28;20037;-74
2023/03/31 06:07:35;;;;;;;5.68;1.80;;;;;;;;;;5032805;28;20408;-74
2023/03/31 06:10:00;;;;;;;9.32;1.67;;;;;;;;;;5031398;28;20499;-74
2023/03/31 06:12:25;;;;;;;9.90;1.80;;;;;;;;;;5032883;28;20033;-75
2023/03/31 06:14:51;;;;;;;12.40;2.20;;;;;;;;;;5031487;28;20405;-74
2023/03/31 06:17:16;;;;;;;8.67;1.77;;;;;;;;;;5032813;28;20630;-74
2023/03/31 06:19:42;;;;;;;11.55;1.60;;;;;;;;;;5032821;28;20730;-74
2023/03/31 06:22:07;;;;;;;7.90;1.95;;;;;;;;;;5032710;28;20036;-74
2023/03/31 06:24:32;;;;;;;9.23;2.13;;;;;;;;;;5032511;28;20033;-74
2023/03/31 06:26:59;;;;;;;8.40;1.57;;;;;;;;;;5031650;28;20044;-73
2023/03/31 06:29:26;;;;;;;6.50;1.40;;;;;;;;;;5032554;28;20259;-75
2023/03/31 06:31:51;;;;;;;10.57;1.90;;;;;;;;;;5032634;28;20037;-73
2023/03/31 06:34:16;;;;;;;12.23;2.53;;;;;;;;;;5032651;28;20033;-76
2023/03/31 06:36:41;;;;;;;6.03;1.80;;;;;;;;;;5032975;28;20068;-76
2023/03/31 06:39:07;;;;;;;8.00;1.23;;;;;;;;;;5035035;28;20247;-77
2023/03/31 06:41:32;;;;;;;5.53;1.70;;;;;;;;;;5031286;28;20266;-77
2023/03/31 06:43:57;;;;;;;4.13;0.98;;;;;;;;;;5031659;28;20562;-77
2023/03/31 06:46:23;;;;;;;7.70;1.17;;;;;;;;;;5032388;28;20029;-77
2023/03/31 06:48:48;;;;;;;4.88;1.10;;;;;;;;;;5035524;28;20262;-76
2023/03/31 06:51:13;;;;;;;3.33;1.08;;;;;;;;;;5034770;28;20099;-75
2023/03/31 06:53:39;;;;;;;5.63;1.50;;;;;;;;;;5034837;28;20481;-75
2023/03/31 06:56:06;;;;;;;9.75;1.20;;;;;;;;;;5036177;28;20396;-76
2023/03/31 06:58:31;;;;;;;3.50;1.10;;;;;;;;;;5036002;28;20032;-76
2023/03/31 07:00:56;;;;;;;6.83;1.00;;;;;;;;;;5035934;28;20416;-75
2023/03/31 07:03:23;;;;;;;5.22;1.30;;;;;;;;;;5034401;28;20607;-74
2023/03/31 07:05:49;;;;;;;3.55;1.05;;;;;;;;;;5035900;28;20440;-74
2023/03/31 07:08:16;;;;;;;3.40;1.10;;;;;;;;;;5035546;28;20052;-74
2023/03/31 07:10:41;;;;;;;1.92;0.93;;;;;;;;;;5035444;28;20100;-74
2023/03/31 07:13:07;;;;;;;8.40;1.20;;;;;;;;;;5035548;28;20112;-74
2023/03/31 07:15:32;;;;;;;2.37;1.00;;;;;;;;;;5035533;28;20032;-73
2023/03/31 07:18:00;;;;;;;3.78;1.15;;;;;;;;;;5035776;28;20262;-74
2023/03/31 07:20:26;;;;;;;3.20;1.27;;;;;;;;;;5034015;28;20053;-77
2023/03/31 07:22:52;;;;;;;4.45;1.40;;;;;;;;;;5035422;28;20025;-74
2023/03/31 07:25:17;;;;;;;6.23;1.30;;;;;;;;;;5033827;28;20033;-74
2023/03/31 07:27:43;;;;;;;5.13;1.10;;;;;;;;;;5035299;28;20262;-74
2023/03/31 07:30:14;;;;;;;5.28;1.27;;;;;;;;;;5035049;28;20108;-74
2023/03/31 07:32:40;;;;;;;6.55;1.38;;;;;;;;;;5035286;28;20049;-74
2023/03/31 07:35:10;;;;;;;3.65;1.30;;;;;;;;;;5035428;28;20060;-74
2023/03/31 07:37:37;;;;;;;5.43;1.40;;;;;;;;;;5035079;28;20185;-74
2023/03/31 07:40:04;;;;;;;2.92;1.30;;;;;;;;;;5034917;28;20412;-74
2023/03/31 07:42:29;;;;;;;4.32;1.40;;;;;;;;;;5034241;28;20423;-74
2023/03/31 07:44:55;;;;;;;7.00;1.40;;;;;;;;;;5034738;28;20108;-74
2023/03/31 07:47:20;;;;;;;4.53;1.55;;;;;;;;;;5034956;28;20103;-75
2023/03/31 07:49:46;;;;;;;8.00;1.40;;;;;;;;;;5034878;28;20481;-74
2023/03/31 07:52:12;;;;;;;6.13;1.48;;;;;;;;;;5033437;28;20298;-74
2023/03/31 07:54:37;;;;;;;3.30;1.20;;;;;;;;;;5035056;28;20053;-74
2023/03/31 07:57:04;;;;;;;3.83;1.30;;;;;;;;;;5034584;28;20263;-76
2023/03/31 07:59:30;;;;;;;2.50;1.10;;;;;;;;;;5033828;28;20301;-74
2023/03/31 08:01:55;;;;;;;3.75;1.20;;;;;;;;;;5033304;28;20033;-74
2023/03/31 08:04:20;;;;;;;5.47;1.20;;;;;;;;;;5034710;28;20017;-74
2023/03/31 08:06:46;;;;;;;5.40;1.37;;;;;;;;;;5034525;28;20267;-74
2023/03/31 08:09:11;;;;;;;5.22;1.40;;;;;;;;;;5033095;28;20267;-74
2023/03/31 08:11:36;;;;;;;3.67;1.35;;;;;;;;;;5034298;28;20057;-73
2023/03/31 08:14:02;;;;;;;5.43;1.27;;;;;;;;;;5032989;28;20477;-74
2023/03/31 08:16:27;;;;;;;5.23;1.30;;;;;;;;;;5034570;28;20021;-74
2023/03/31 08:18:52;;;;;;;2.75;1.20;;;;;;;;;;5034437;28;20262;-74
2023/03/31 08:21:17;;;;;;;5.17;1.47;;;;;;;;;;5034186;28;20128;-74
2023/03/31 08:23:43;;;;;;;7.50;1.50;;;;;;;;;;5034110;28;20266;-74
2023/03/31 08:26:18;;;;;;;6.28;1.38;;;;;;;;;;5033978;28;20275;-73
2023/03/31 08:28:44;;;;;;;3.25;1.20;;;;;;;;;;5034214;28;20017;-74
2023/03/31 08:31:09;;;;;;;6.20;1.42;;;;;;;;;;5033894;28;20374;-74
2023/03/31 08:33:36;;;;;;;5.73;1.20;;;;;;;;;;5033963;28;20049;-74
2023/03/31 08:36:07;;;;;;;4.30;1.13;;;;;;;;;;5033683;28;20325;-72
2023/03/31 08:38:36;;;;;;;4.75;1.25;;;;;;;;;;5033810;28;20021;-73
2023/03/31 08:41:04;;;;;;;4.13;1.00;;;;;;;;;;5033671;28;20025;-71
2023/03/31 08:43:33;;;;;;;3.70;1.05;;;;;;;;;;5032473;28;20025;-73
2023/03/31 08:46:01;;;;;;;7.22;1.58;;;;;;;;;;5032317;28;20030;-74
2023/03/31 08:48:43;;;;;;;5.03;1.10;;;;;;;;;;5033865;28;20040;-74
2023/03/31 08:51:20;;;;;;;3.00;0.98;;;;;;;;;;5033670;28;20087;-73
2023/03/31 08:53:58;;;;;;;5.30;1.20;;;;;;;;;;5033647;28;20057;-73
2023/03/31 08:56:26;;;;;;;9.52;1.33;;;;;;;;;;5033530;28;20025;-74
2023/03/31 08:58:52;;;;;;;7.72;1.35;;;;;;;;;;5033515;28;20023;-74
2023/03/31 09:01:44;;;;;;;10.00;1.40;;;;;;;;;;5033759;28;20029;-74
2023/03/31 09:04:42;;;;;;;5.53;1.30;;;;;;;;;;5033674;28;20037;-74
2023/03/31 09:07:42;;;;;;;5.78;1.35;;;;;;;;;;5032067;28;20029;-74
2023/03/31 09:10:24;;;;;;;8.20;1.40;;;;;;;;;;5032970;28;20033;-74
2023/03/31 09:13:08;;;;;;;4.95;1.40;;;;;;;;;;5033668;28;20072;-74
2023/03/31 09:15:47;;;;;;;5.82;1.38;;;;;;;;;;5033433;28;20033;-73
2023/03/31 09:18:30;;;;;;;3.20;1.00;;;;;;;;;;5033562;28;20494;-74
2023/03/31 09:21:06;;;;;;;2.97;1.00;;;;;;;;;;5031942;28;20074;-74
2023/03/31 09:23:37;;;;;;;4.95;1.10;;;;;;;;;;5033461;28;20025;-73
2023/03/31 09:26:03;;;;;;;4.43;0.93;;;;;;;;;;5033390;28;20025;-73
2023/03/31 09:28:39;;;;;;;4.35;1.13;;;;;;;;;;5033043;28;20022;-73
2023/03/31 09:31:12;;;;;;;9.60;1.52;;;;;;;;;;5033008;28;20022;-73
2023/03/31 09:33:43;;;;;;;2.20;0.90;;;;;;;;;;5033256;28;20028;-74
2023/03/31 09:36:15;;;;;;;4.00;0.73;;;;;;;;;;5033326;28;20032;-73
2023/03/31 09:38:41;;;;;;;5.30;1.10;;;;;;;;;;5033352;28;20079;-73
2023/03/31 09:41:07;;;;;;;3.10;0.90;;;;;;;;;;5032813;28;20029;-73
2023/03/31 09:43:37;;;;;;;3.08;0.90;;;;;;;;;;5032940;28;20018;-73
2023/03/31 09:46:08;;;;;;;5.07;0.88;;;;;;;;;;5032273;28;20067;-74
2023/03/31 09:48:35;;;;;;;4.10;0.85;;;;;;;;;;5031508;28;20551;-74
2023/03/31 09:51:06;;;;;;;3.53;0.77;;;;;;;;;;5031714;28;20034;-73
2023/03/31 09:53:56;;;;;;;3.40;1.10;;;;;;;;;;5032914;28;20504;-72
2023/03/31 09:56:54;;;;;;;4.15;1.13;;;;;;;;;;5032671;28;20033;-73
2023/03/31 09:59:29;;;;;;;3.88;1.02;;;;;;;;;;5020853;28;20060;-73
2023/03/31 10:01:58;;;;;;;2.45;0.90;;;;;;;;;;5033340;28;20033;-73
2023/03/31 10:04:27;;;;;;;4.53;1.20;;;;;;;;;;5031296;28;20029;-75
2023/03/31 10:06:53;;;;;;;1.23;0.77;;;;;;;;;;5032554;28;20034;-73
2023/03/31 10:09:23;;;;;;;4.50;1.20;;;;;;;;;;5032517;28;20029;-73
2023/03/31 10:11:57;;;;;;;2.70;1.10;;;;;;;;;;5032862;28;20022;-74
2023/03/31 10:14:51;;;;;;;3.55;1.13;;;;;;;;;;5032766;28;20106;-73
2023/03/31 10:17:20;;;;;;;3.58;1.13;;;;;;;;;;5032245;28;20116;-74
2023/03/31 10:19:52;;;;;;;5.35;1.30;;;;;;;;;;5032453;28;20120;-73
2023/03/31 10:22:21;;;;;;;3.17;1.00;;;;;;;;;;5033662;28;20032;-73
2023/03/31 10:24:47;;;;;;;2.88;1.10;;;;;;;;;;5036388;28;20084;-73
2023/03/31 10:27:22;;;;;;;2.38;0.90;;;;;;;;;;5036300;28;20116;-73
2023/03/31 10:29:52;;;;;;;6.00;1.10;;;;;;;;;;5035049;28;20400;-73
2023/03/31 10:32:26;;;;;;;3.67;0.80;;;;;;;;;;5034902;28;20480;-74
2023/03/31 10:34:51;;;;;;;2.00;1.00;;;;;;;;;;5035100;28;20021;-74
2023/03/31 10:37:21;;;;;;;2.80;1.17;;;;;;;;;;5036229;28;20035;-74
2023/03/31 10:39:47;;;;;;;4.93;1.15;;;;;;;;;;5036455;28;20025;-74
2023/03/31 10:42:23;;;;;;;3.22;1.13;;;;;;;;;;5036148;28;20057;-74
2023/03/31 10:44:48;;;;;;;2.78;1.00;;;;;;;;;;5034749;28;20030;-73
2023/03/31 10:47:19;;;;;;;4.13;1.65;;;;;;;;;;5036313;28;20029;-73
2023/03/31 10:49:48;;;;;;;4.85;1.50;;;;;;;;;;5035884;28;20025;-72
2023/03/31 10:52:19;;;;;;;5.25;1.40;;;;;;;;;;5035852;28;20518;-72
2023/03/31 10:54:47;;;;;;;4.55;1.60;;;;;;;;;;5035880;28;20033;-74
2023/03/31 10:57:13;;;;;;;4.72;1.50;;;;;;;;;;5035660;28;20029;-73
2023/03/31 11:00:12;;;;;;;3.85;1.70;;;;;;;;;;5036203;28;20395;-74
2023/03/31 11:03:01;;;;;;;4.15;1.73;;;;;;;;;;5036032;28;20500;-73
2023/03/31 11:05:46;;;;;;;2.20;1.38;;;;;;;;;;5036178;28;20040;-73
2023/03/31 11:08:28;;;;;;;4.22;1.58;;;;;;;;;;5035668;28;20025;-73
2023/03/31 11:11:00;;;;;;;3.25;1.70;;;;;;;;;;5035684;28;20033;-72
2023/03/31 11:13:43;;;;;;;2.92;1.52;;;;;;;;;;5035842;28;20030;-73
2023/03/31 11:16:15;;;;;;;3.20;1.60;;;;;;;;;;5035522;28;20026;-73
2023/03/31 11:19:19;;;;;;;2.58;1.10;;;;;;;;;;5034133;28;20029;-72
2023/03/31 11:22:08;;;;;;;2.95;1.25;;;;;;;;;;5035654;28;20029;-73
2023/03/31 11:24:53;;;;;;;4.05;1.70;;;;;;;;;;5035648;28;20037;-73
2023/03/31 11:27:39;;;;;;;2.75;1.70;;;;;;;;;;5035570;28;20037;-73
2023/03/31 11:30:20;;;;;;;2.83;1.48;;;;;;;;;;5035308;28;20025;-72
2023/03/31 11:33:12;;;;;;;3.13;1.70;;;;;;;;;;5035681;28;20033;-73
2023/03/31 11:36:04;;;;;;;3.00;1.67;;;;;;;;;;5032529;28;20096;-73
2023/03/31 11:38:44;;;;;;;2.28;1.40;;;;;;;;;;5031946;28;20091;-72
2023/03/31 11:41:16;;;;;;;2.17;1.42;;;;;;;;;;5033987;28;20075;-72
2023/03/31 11:43:48;;;;;;;2.20;1.40;;;;;;;;;;5035869;28;20021;-72
2023/03/31 11:46:35;;;;;;;4.95;1.65;;;;;;;;;;5035575;28;20033;-73
2023/03/31 11:49:11;;;;;;;2.83;1.50;;;;;;;;;;5033407;28;20028;-72
2023/03/31 11:52:00;;;;;;;4.97;1.70;;;;;;;;;;5035144;28;20401;-72
2023/03/31 11:54:45;;;;;;;5.07;1.70;;;;;;;;;;5033556;28;20029;-72
2023/03/31 11:57:22;;;;;;;3.95;1.52;;;;;;;;;;5034799;28;20048;-73
2023/03/31 11:59:57;;;;;;;2.15;1.27;;;;;;;;;;5035272;28;20472;-73
2023/03/31 12:02:39;;;;;;;3.53;1.70;;;;;;;;;;5034720;28;20112;-73
2023/03/31 12:05:07;;;;;;;3.97;1.60;;;;;;;;;;5034701;28;20037;-73
2023/03/31 12:07:46;;;;;;;3.17;1.45;;;;;;;;;;5034708;28;20025;-73
2023/03/31 12:10:22;;;;;;;1.77;1.35;;;;;;;;;;5033180;28;20544;-73
2023/03/31 12:12:54;;;;;;;2.30;1.55;;;;;;;;;;5033200;28;20036;-73
2023/03/31 12:15:31;;;;;;;2.45;1.50;;;;;;;;;;5034730;28;20095;-73
2023/03/31 12:18:01;;;;;;;5.60;1.48;;;;;;;;;;5034566;28;20033;-73
2023/03/31 12:20:46;;;;;;;4.10;1.58;;;;;;;;;;5034534;28;20068;-73
2023/03/31 12:23:20;;;;;;;3.60;1.25;;;;;;;;;;5034320;28;20517;-72
2023/03/31 12:25:57;;;;;;;4.05;1.40;;;;;;;;;;5034134;28;20026;-73
2023/03/31 12:28:23;;;;;;;2.45;1.30;;;;;;;;;;5034740;28;20040;-73
2023/03/31 12:30:49;;;;;;;3.70;1.45;;;;;;;;;;5034047;28;20025;-73
2023/03/31 12:33:21;;;;;;;2.17;1.35;;;;;;;;;;5033984;28;20095;-73
2023/03/31 12:36:01;;;;;;;2.80;1.60;;;;;;;;;;5034044;28;20025;-73
2023/03/31 12:38:53;;;;;;;5.30;1.58;;;;;;;;;;5034305;28;20033;-73
2023/03/31 12:41:40;;;;;;;2.78;1.83;;;;;;;;;;5033845;28;20029;-73
2023/03/31 12:44:37;;;;;;;2.35;1.73;;;;;;;;;;5032894;28;20087;-73
2023/03/31 12:47:28;;;;;;;5.72;2.00;;;;;;;;;;5032592;28;20041;-73
2023/03/31 12:50:21;;;;;;;4.28;2.17;;;;;;;;;;5033902;28;20108;-74
2023/03/31 12:52:55;;;;;;;4.03;2.38;;;;;;;;;;5033737;28;20072;-73
2023/03/31 12:55:47;;;;;;;5.13;2.80;;;;;;;;;;5033621;28;20083;-73
2023/03/31 12:58:21;;;;;;;3.15;2.00;;;;;;;;;;5032375;28;20045;-74
2023/03/31 13:01:13;;;;;;;4.03;2.30;;;;;;;;;;5033588;28;20025;-73
2023/03/31 13:03:52;;;;;;;4.30;2.00;;;;;;;;;;5033300;28;20025;-73
2023/03/31 13:06:26;;;;;;;4.90;2.42;;;;;;;;;;5033476;28;20064;-73
2023/03/31 13:08:55;;;;;;;4.32;2.70;;;;;;;;;;5031975;28;20025;-72
2023/03/31 13:11:46;;;;;;;4.20;2.25;;;;;;;;;;5031968;28;20504;-73
2023/03/31 13:14:24;;;;;;;3.38;2.13;;;;;;;;;;5033716;28;20029;-73
2023/03/31 13:16:52;;;;;;;3.00;1.83;;;;;;;;;;5033393;28;20025;-73
2023/03/31 13:19:26;;;;;;;3.28;2.10;;;;;;;;;;5033134;28;20100;-72
2023/03/31 13:21:53;;;;;;;4.70;2.17;;;;;;;;;;5033177;28;20029;-73
2023/03/31 13:24:21;;;;;;;3.72;2.35;;;;;;;;;;5033258;28;20450;-72
2023/03/31 13:26:46;;;;;;;5.32;2.55;;;;;;;;;;5032932;28;20033;-73
2023/03/31 13:29:15;;;;;;;6.50;2.63;;;;;;;;;;5033170;28;20033;-73
2023/03/31 13:31:58;;;;;;;5.47;3.38;;;;;;;;;;5033033;28;20025;-72
2023/03/31 13:34:26;;;;;;;5.18;2.85;;;;;;;;;;5033070;28;20176;-73
2023/03/31 13:37:08;;;;;;;3.70;2.90;;;;;;;;;;5032979;28;20071;-73
2023/03/31 13:39:50;;;;;;;5.38;2.70;;;;;;;;;;5033107;28;20114;-72
2023/03/31 13:42:31;;;;;;;5.45;3.00;;;;;;;;;;5032910;28;20056;-72
2023/03/31 13:45:18;;;;;;;4.22;3.08;;;;;;;;;;5032774;28;20139;-73
2023/03/31 13:48:20;;;;;;;4.18;2.70;;;;;;;;;;5033142;28;20025;-73
2023/03/31 13:51:16;;;;;;;4.38;2.35;;;;;;;;;;5032789;28;20104;-73
2023/03/31 13:54:03;;;;;;;3.88;2.20;;;;;;;;;;5033027;28;20083;-73
2023/03/31 13:56:52;;;;;;;3.75;2.00;;;;;;;;;;5031338;28;20071;-73
2023/03/31 13:59:57;;;;;;;3.58;2.47;;;;;;;;;;5026727;28;20057;-73
2023/03/31 14:02:43;;;;;;;2.67;1.70;;;;;;;;;;5036982;28;20025;-73
2023/03/31 14:05:29;;;;;;;2.05;1.08;;;;;;;;;;5036874;28;20032;-73
2023/03/31 14:08:24;;;;;;;1.90;1.10;;;;;;;;;;5036757;28;20017;-73
2023/03/31 14:10:50;;;;;;;3.70;2.00;;;;;;;;;;5036558;28;20031;-73
2023/03/31 14:13:18;;;;;;;2.35;1.10;;;;;;;;;;5036542;28;20021;-73
2023/03/31 14:15:52;;;;;;;1.25;0.77;;;;;;;;;;5036424;28;20033;-74
2023/03/31 14:18:24;;;;;;;2.10;0.80;;;;;;;;;;5036759;28;20021;-73
2023/03/31 14:20:56;;;;;;;1.80;0.80;;;;;;;;;;5035343;28;20095;-72
2023/03/31 14:23:55;;;;;;;1.58;0.90;;;;;;;;;;5036982;28;20026;-73
2023/03/31 14:26:41;;;;;;;1.27;0.90;;;;;;;;;;5036540;28;20025;-72
2023/03/31 14:29:19;;;;;;;2.05;1.10;;;;;;;;;;5036115;28;20017;-72
2023/03/31 14:32:06;;;;;;;2.70;1.00;;;;;;;;;;5036076;28;20022;-73
2023/03/31 14:34:41;;;;;;;3.28;1.48;;;;;;;;;;5036161;28;20481;-73
2023/03/31 14:37:10;;;;;;;1.70;0.90;;;;;;;;;;5034830;28;20088;-73
2023/03/31 14:39:40;;;;;;;1.40;0.90;;;;;;;;;;5036077;28;20026;-72
2023/03/31 14:42:12;;;;;;;1.90;1.00;;;;;;;;;;5036184;28;20025;-73
2023/03/31 14:44:38;;;;;;;1.85;0.65;;;;;;;;;;5035917;28;20485;-73
2023/03/31 14:47:05;;;;;;;3.17;0.80;;;;;;;;;;5036353;28;20040;-73
2023/03/31 14:49:36;;;;;;;1.13;0.70;;;;;;;;;;5036507;28;20026;-73
2023/03/31 14:52:15;;;;;;;1.52;0.82;;;;;;;;;;5036029;28;20083;-73
2023/03/31 14:54:45;;;;;;;2.50;0.80;;;;;;;;;;5035971;28;20030;-73
2023/03/31 14:57:20;;;;;;;1.58;0.90;;;;;;;;;;5034366;28;20437;-72
2023/03/31 14:59:49;;;;;;;1.27;0.63;;;;;;;;;;5035958;28;20025;-74
2023/03/31 15:02:22;;;;;;;1.30;0.68;;;;;;;;;;5035203;28;20054;-71
2023/03/31 15:04:50;;;;;;;0.88;0.60;;;;;;;;;;5035698;28;20112;-73
2023/03/31 15:07:16;;;;;;;1.63;0.60;;;;;;;;;;5034390;28;20029;-73
2023/03/31 15:09:48;;;;;;;1.45;0.75;;;;;;;;;;5035838;28;20054;-73
2023/03/31 15:12:14;;;;;;;1.08;0.60;;;;;;;;;;5035693;28;20515;-73
2023/03/31 15:14:53;;;;;;;2.92;0.68;;;;;;;;;;5034933;28;20052;-73
2023/03/31 15:17:24;;;;;;;1.38;0.57;;;;;;;;;;5035618;28;20026;-72